sensor_id;sensor_type;location;lat;lon;timestamp;pressure;altitude;pressure_sealevel;temperature;humidity
48386;BME280;34644;47.964;7.982;2023-03-03T00:05:56;96759.34;;;14.18;59.01
48386;BME280;34644;47.964;7.982;2023-03-03T00:12:57;96765.47;;;14.19;58.76
48386;BME280;34644;47.964;7.982;2023-03-03T00:19:59;96767.28;;;14.18;58.82
48386;BME280;34644;47.964;7.982;2023-03-03T00:27:07;96765.47;;;14.19;58.88
48386;BME280;34644;47.964;7.982;2023-03-03T00:41:23;96762.81;;;14.19;58.89
48386;BME280;34644;47.964;7.982;2023-03-03T00:48:25;96762.81;;;14.19;58.60
48386;BME280;34644;47.964;7.982;2023-03-03T00:55:26;96783.19;;;14.18;58.66
48386;BME280;34644;47.964;7.982;2023-03-03T01:02:26;96779.75;;;14.18;58.53
48386;BME280;34644;47.964;7.982;2023-03-03T01:09:27;96788.50;;;14.18;58.34
48386;BME280;34644;47.964;7.982;2023-03-03T01:16:27;96779.75;;;14.18;58.34
48386;BME280;34644;47.964;7.982;2023-03-03T01:23:27;96773.91;;;14.16;58.22
48386;BME280;34644;47.964;7.982;2023-03-03T01:30:28;96775.75;;;14.15;58.08
48386;BME280;34644;47.964;7.982;2023-03-03T01:37:28;96773.91;;;14.16;58.07
48386;BME280;34644;47.964;7.982;2023-03-03T01:44:28;96779.72;;;14.13;57.86
48386;BME280;34644;47.964;7.982;2023-03-03T01:51:33;96775.44;;;14.11;57.84
48386;BME280;34644;47.964;7.982;2023-03-03T01:58:44;96766.72;;;14.11;57.66
48386;BME280;34644;47.964;7.982;2023-03-03T02:05:46;96759.56;;;14.11;57.84
48386;BME280;34644;47.964;7.982;2023-03-03T02:20:05;96751.34;;;14.13;57.84
48386;BME280;34644;47.964;7.982;2023-03-03T02:27:06;96746.84;;;14.14;58.11
48386;BME280;34644;47.964;7.982;2023-03-03T02:34:07;96748.19;;;14.16;58.05
48386;BME280;34644;47.964;7.982;2023-03-03T02:48:20;96736.81;;;14.16;58.14
48386;BME280;34644;47.964;7.982;2023-03-03T02:55:20;96729.91;;;14.15;57.93
48386;BME280;34644;47.964;7.982;2023-03-03T03:02:20;96732.00;;;14.13;58.10
48386;BME280;34644;47.964;7.982;2023-03-03T03:09:21;96725.34;;;14.10;58.00
48386;BME280;34644;47.964;7.982;2023-03-03T03:16:24;96717.41;;;14.10;57.71
48386;BME280;34644;47.964;7.982;2023-03-03T03:23:24;96717.41;;;14.10;57.94
48386;BME280;34644;47.964;7.982;2023-03-03T03:30:24;96732.50;;;14.09;57.84
48386;BME280;34644;47.964;7.982;2023-03-03T03:37:25;96736.78;;;14.10;57.87
48386;BME280;34644;47.964;7.982;2023-03-03T03:44:26;96748.44;;;14.15;58.05
48386;BME280;34644;47.964;7.982;2023-03-03T03:51:28;96741.28;;;14.15;57.92
48386;BME280;34644;47.964;7.982;2023-03-03T03:58:28;96740.25;;;14.16;58.24
48386;BME280;34644;47.964;7.982;2023-03-03T04:05:33;96742.91;;;14.16;58.20
48386;BME280;34644;47.964;7.982;2023-03-03T04:12:34;96758.00;;;14.16;58.10
48386;BME280;34644;47.964;7.982;2023-03-03T04:19:39;96757.19;;;14.15;58.09
48386;BME280;34644;47.964;7.982;2023-03-03T04:26:39;96768.03;;;14.14;57.99
48386;BME280;34644;47.964;7.982;2023-03-03T04:33:40;96771.91;;;11.43;48.19
48386;BME280;34644;47.964;7.982;2023-03-03T04:40:42;96765.19;;;13.38;49.19
48386;BME280;34644;47.964;7.982;2023-03-03T04:47:43;96761.53;;;13.67;52.25
48386;BME280;34644;47.964;7.982;2023-03-03T04:54:44;96767.53;;;13.84;53.43
48386;BME280;34644;47.964;7.982;2023-03-03T05:01:44;96768.22;;;14.02;53.97
48386;BME280;34644;47.964;7.982;2023-03-03T05:08:47;96767.03;;;14.20;53.86
48386;BME280;34644;47.964;7.982;2023-03-03T05:15:51;96771.06;;;14.27;53.91
48386;BME280;34644;47.964;7.982;2023-03-03T05:22:52;96773.47;;;14.29;54.08
48386;BME280;34644;47.964;7.982;2023-03-03T05:29:52;96772.44;;;14.30;54.33
48386;BME280;34644;47.964;7.982;2023-03-03T05:36:52;96773.22;;;14.30;54.39
48386;BME280;34644;47.964;7.982;2023-03-03T05:43:53;96782.44;;;11.54;45.39
48386;BME280;34644;47.964;7.982;2023-03-03T05:50:53;96778.69;;;10.50;45.68
48386;BME280;34644;47.964;7.982;2023-03-03T05:57:54;96790.78;;;12.21;45.63
48386;BME280;34644;47.964;7.982;2023-03-03T06:04:54;96796.97;;;13.21;47.31
48386;BME280;34644;47.964;7.982;2023-03-03T06:11:55;96790.97;;;13.98;47.24
48386;BME280;34644;47.964;7.982;2023-03-03T06:18:55;96795.56;;;14.40;47.71
48386;BME280;34644;47.964;7.982;2023-03-03T06:25:56;96805.66;;;14.38;48.49
48386;BME280;34644;47.964;7.982;2023-03-03T06:32:56;96796.38;;;14.40;49.08
48386;BME280;34644;47.964;7.982;2023-03-03T06:39:57;96807.28;;;14.44;49.66
48386;BME280;34644;47.964;7.982;2023-03-03T06:46:57;96808.28;;;14.38;50.37
48386;BME280;34644;47.964;7.982;2023-03-03T06:53:58;96820.41;;;14.28;50.90
48386;BME280;34644;47.964;7.982;2023-03-03T07:01:00;96821.69;;;14.26;51.01
48386;BME280;34644;47.964;7.982;2023-03-03T07:08:01;96830.75;;;14.30;51.23
48386;BME280;34644;47.964;7.982;2023-03-03T07:15:13;96842.22;;;14.63;50.72
48386;BME280;34644;47.964;7.982;2023-03-03T07:22:18;96839.91;;;14.77;50.80
48386;BME280;34644;47.964;7.982;2023-03-03T07:29:25;96842.91;;;14.91;50.77
48386;BME280;34644;47.964;7.982;2023-03-03T07:36:28;96851.13;;;14.89;51.01
48386;BME280;34644;47.964;7.982;2023-03-03T07:43:35;96848.44;;;14.79;51.29
48386;BME280;34644;47.964;7.982;2023-03-03T07:50:36;96867.50;;;14.76;51.70
48386;BME280;34644;47.964;7.982;2023-03-03T07:57:36;96874.88;;;14.69;51.81
48386;BME280;34644;47.964;7.982;2023-03-03T08:11:50;96885.16;;;14.60;52.09
48386;BME280;34644;47.964;7.982;2023-03-03T08:18:51;96883.75;;;14.57;52.44
48386;BME280;34644;47.964;7.982;2023-03-03T08:25:52;96885.59;;;14.52;52.42
48386;BME280;34644;47.964;7.982;2023-03-03T08:32:53;96882.13;;;14.51;52.53
48386;BME280;34644;47.964;7.982;2023-03-03T08:39:53;96892.97;;;14.50;52.46
48386;BME280;34644;47.964;7.982;2023-03-03T08:46:53;96873.22;;;14.08;49.99
48386;BME280;34644;47.964;7.982;2023-03-03T08:53:54;96881.53;;;13.94;49.19
48386;BME280;34644;47.964;7.982;2023-03-03T09:00:54;96880.41;;;13.85;48.41
48386;BME280;34644;47.964;7.982;2023-03-03T09:07:55;96887.19;;;13.76;47.96
48386;BME280;34644;47.964;7.982;2023-03-03T09:14:57;96886.56;;;13.69;47.29
48386;BME280;34644;47.964;7.982;2023-03-03T09:22:08;96882.22;;;13.63;47.09
48386;BME280;34644;47.964;7.982;2023-03-03T09:36:23;96885.56;;;13.53;46.41
48386;BME280;34644;47.964;7.982;2023-03-03T10:05:15;96889.06;;;14.03;49.20
48386;BME280;34644;47.964;7.982;2023-03-03T10:19:25;96893.44;;;14.69;49.23
48386;BME280;34644;47.964;7.982;2023-03-03T10:40:37;96885.06;;;14.82;53.70
48386;BME280;34644;47.964;7.982;2023-03-03T11:01:48;96892.81;;;14.89;55.62
48386;BME280;34644;47.964;7.982;2023-03-03T11:08:56;96888.00;;;14.86;55.13
48386;BME280;34644;47.964;7.982;2023-03-03T11:16:01;96876.13;;;14.93;56.75
48386;BME280;34644;47.964;7.982;2023-03-03T11:23:09;96878.56;;;15.00;56.74
48386;BME280;34644;47.964;7.982;2023-03-03T11:37:21;96872.78;;;15.56;56.31
48386;BME280;34644;47.964;7.982;2023-03-03T11:44:34;96862.50;;;15.75;55.84
48386;BME280;34644;47.964;7.982;2023-03-03T11:58:49;96859.63;;;15.87;56.22
48386;BME280;34644;47.964;7.982;2023-03-03T12:13:08;96869.50;;;15.97;56.87
48386;BME280;34644;47.964;7.982;2023-03-03T12:34:44;96842.19;;;16.32;56.77
48386;BME280;34644;47.964;7.982;2023-03-03T12:49:06;96835.81;;;16.54;56.82
48386;BME280;34644;47.964;7.982;2023-03-03T12:56:07;96829.72;;;16.48;56.97
48386;BME280;34644;47.964;7.982;2023-03-03T13:10:17;96820.66;;;16.44;57.30
48386;BME280;34644;47.964;7.982;2023-03-03T13:17:29;96825.72;;;16.40;57.50
48386;BME280;34644;47.964;7.982;2023-03-03T13:24:32;96827.03;;;16.33;57.84
48386;BME280;34644;47.964;7.982;2023-03-03T13:31:40;96825.44;;;16.26;58.46
48386;BME280;34644;47.964;7.982;2023-03-03T13:38:52;96831.78;;;16.15;58.79
48386;BME280;34644;47.964;7.982;2023-03-03T14:07:15;96812.06;;;15.80;59.76
48386;BME280;34644;47.964;7.982;2023-03-03T14:21:18;96813.41;;;15.88;59.97
48386;BME280;34644;47.964;7.982;2023-03-03T14:28:21;96815.81;;;15.95;59.84
48386;BME280;34644;47.964;7.982;2023-03-03T14:35:22;96801.88;;;15.67;58.52
48386;BME280;34644;47.964;7.982;2023-03-03T14:42:29;96805.53;;;15.50;56.40
48386;BME280;34644;47.964;7.982;2023-03-03T14:49:31;96805.53;;;15.45;55.85
48386;BME280;34644;47.964;7.982;2023-03-03T14:56:36;96808.88;;;15.25;54.28
48386;BME280;34644;47.964;7.982;2023-03-03T15:03:36;96792.09;;;15.14;53.56
48386;BME280;34644;47.964;7.982;2023-03-03T15:10:38;96802.69;;;15.04;52.88
48386;BME280;34644;47.964;7.982;2023-03-03T15:17:42;96796.25;;;14.95;52.48
48386;BME280;34644;47.964;7.982;2023-03-03T15:24:55;96786.69;;;14.94;52.30
48386;BME280;34644;47.964;7.982;2023-03-03T15:39:12;96803.88;;;14.86;52.32
48386;BME280;34644;47.964;7.982;2023-03-03T15:46:27;96807.31;;;14.81;52.14
48386;BME280;34644;47.964;7.982;2023-03-03T15:54:14;96810.44;;;14.73;51.74
48386;BME280;34644;47.964;7.982;2023-03-03T16:08:28;96815.13;;;14.61;50.95
48386;BME280;34644;47.964;7.982;2023-03-03T16:30:00;96837.22;;;14.39;49.92
48386;BME280;34644;47.964;7.982;2023-03-03T16:44:33;96860.94;;;14.24;49.24
48386;BME280;34644;47.964;7.982;2023-03-03T17:05:45;96885.09;;;14.05;48.62
48386;BME280;34644;47.964;7.982;2023-03-03T17:27:19;96909.31;;;13.87;48.30
48386;BME280;34644;47.964;7.982;2023-03-03T17:34:26;96909.22;;;13.82;47.79
48386;BME280;34644;47.964;7.982;2023-03-03T17:42:16;96915.00;;;13.79;47.68
48386;BME280;34644;47.964;7.982;2023-03-03T17:48:58;96927.47;;;13.78;47.89
48386;BME280;34644;47.964;7.982;2023-03-03T18:03:28;96942.47;;;14.17;51.53
48386;BME280;34644;47.964;7.982;2023-03-03T18:17:51;96945.47;;;14.20;50.01
48386;BME280;34644;47.964;7.982;2023-03-03T18:24:58;96955.13;;;14.09;48.79
48386;BME280;34644;47.964;7.982;2023-03-03T18:32:01;96961.66;;;14.02;48.61
48386;BME280;34644;47.964;7.982;2023-03-03T18:39:03;96965.78;;;13.92;48.49
48386;BME280;34644;47.964;7.982;2023-03-03T18:46:04;96972.13;;;13.91;47.99
48386;BME280;34644;47.964;7.982;2023-03-03T19:21:31;96986.22;;;13.75;47.10
48386;BME280;34644;47.964;7.982;2023-03-03T19:28:36;96992.25;;;13.70;46.58
48386;BME280;34644;47.964;7.982;2023-03-03T19:43:02;97001.09;;;13.59;46.43
48386;BME280;34644;47.964;7.982;2023-03-03T19:57:30;97007.00;;;13.44;46.07
48386;BME280;34644;47.964;7.982;2023-03-03T20:19:09;97014.00;;;13.72;48.30
48386;BME280;34644;47.964;7.982;2023-03-03T20:26:29;97034.00;;;14.02;48.57
48386;BME280;34644;47.964;7.982;2023-03-03T20:33:51;97033.25;;;14.46;48.59
48386;BME280;34644;47.964;7.982;2023-03-03T21:03:27;97040.75;;;14.54;50.01
48386;BME280;34644;47.964;7.982;2023-03-03T21:10:13;97041.81;;;14.53;49.97
48386;BME280;34644;47.964;7.982;2023-03-03T21:17:25;97037.81;;;14.51;50.30
48386;BME280;34644;47.964;7.982;2023-03-03T21:31:45;97049.44;;;14.50;50.66
48386;BME280;34644;47.964;7.982;2023-03-03T21:38:46;97044.63;;;14.46;50.72
48386;BME280;34644;47.964;7.982;2023-03-03T21:45:46;97038.00;;;14.44;50.95
48386;BME280;34644;47.964;7.982;2023-03-03T21:52:47;97047.78;;;14.43;51.21
48386;BME280;34644;47.964;7.982;2023-03-03T21:59:47;97047.22;;;14.41;51.11
48386;BME280;34644;47.964;7.982;2023-03-03T22:06:47;97047.00;;;14.43;51.34
48386;BME280;34644;47.964;7.982;2023-03-03T22:13:48;97054.16;;;14.42;51.57
48386;BME280;34644;47.964;7.982;2023-03-03T22:20:48;97057.03;;;14.41;51.53
48386;BME280;34644;47.964;7.982;2023-03-03T22:27:49;97048.28;;;14.40;51.60
48386;BME280;34644;47.964;7.982;2023-03-03T22:34:50;97054.66;;;14.39;51.82
48386;BME280;34644;47.964;7.982;2023-03-03T22:41:50;97045.63;;;14.40;51.80
48386;BME280;34644;47.964;7.982;2023-03-03T22:48:50;97046.69;;;14.39;51.92
48386;BME280;34644;47.964;7.982;2023-03-03T22:55:50;97047.88;;;13.70;48.56
48386;BME280;34644;47.964;7.982;2023-03-03T23:02:51;97053.81;;;14.17;49.63
48386;BME280;34644;47.964;7.982;2023-03-03T23:09:51;97051.78;;;14.24;50.36
48386;BME280;34644;47.964;7.982;2023-03-03T23:16:51;97044.16;;;14.27;50.86
48386;BME280;34644;47.964;7.982;2023-03-03T23:23:52;97038.59;;;14.29;50.97
48386;BME280;34644;47.964;7.982;2023-03-03T23:30:52;97044.47;;;14.31;51.25
48386;BME280;34644;47.964;7.982;2023-03-03T23:37:52;97042.63;;;14.32;51.40
48386;BME280;34644;47.964;7.982;2023-03-03T23:44:53;97047.66;;;14.33;51.45
48386;BME280;34644;47.964;7.982;2023-03-03T23:51:56;97046.59;;;14.34;51.49
48386;BME280;34644;47.964;7.982;2023-03-03T23:58:56;97052.16;;;14.33;51.50
